createdAt,value
2022-10-10T00:00:06.602Z,101816.55
2022-10-10T00:05:32.476Z,101813.46
2022-10-10T00:10:38.742Z,101813.94
2022-10-10T00:15:48.723Z,101814.72
2022-10-10T00:20:55.428Z,101810.02
2022-10-10T00:26:04.425Z,101800.87
2022-10-10T00:31:13.006Z,101804.58
2022-10-10T00:36:20.568Z,101810.00
2022-10-10T00:41:27.027Z,101812.64
2022-10-10T00:46:32.946Z,101809.73
2022-10-10T00:51:39.246Z,101807.86
2022-10-10T00:56:48.705Z,101806.48
2022-10-10T01:01:54.448Z,101797.45
2022-10-10T01:07:01.619Z,101797.20
2022-10-10T01:12:17.626Z,101801.13
2022-10-10T01:17:30.743Z,101804.02
2022-10-10T01:22:50.097Z,101800.72
2022-10-10T01:28:02.480Z,101802.89
2022-10-10T01:33:13.287Z,101802.05
2022-10-10T01:38:29.426Z,101806.04
2022-10-10T01:43:37.334Z,101808.65
2022-10-10T01:48:46.011Z,101802.77
2022-10-10T01:53:59.836Z,101804.21
2022-10-10T01:59:15.852Z,101803.25
2022-10-10T02:04:30.875Z,101800.05
2022-10-10T02:09:40.018Z,101797.64
2022-10-10T02:14:51.055Z,101796.21
2022-10-10T02:20:00.188Z,101795.36
2022-10-10T02:25:07.516Z,101804.89
2022-10-10T02:30:14.586Z,101801.71
2022-10-10T02:35:23.856Z,101801.70
2022-10-10T02:40:32.656Z,101801.29
2022-10-10T02:45:40.516Z,101802.07
2022-10-10T02:50:46.587Z,101801.73
2022-10-10T02:55:52.467Z,101794.98
2022-10-10T03:00:58.471Z,101784.77
2022-10-10T03:06:05.340Z,101777.30
2022-10-10T03:11:11.366Z,101782.93
2022-10-10T03:16:17.236Z,101783.05
2022-10-10T03:21:23.144Z,101779.14
2022-10-10T03:26:28.935Z,101773.86
2022-10-10T03:31:34.828Z,101776.87
2022-10-10T03:36:40.780Z,101782.87
2022-10-10T03:41:46.651Z,101784.86
2022-10-10T03:46:52.493Z,101788.36
2022-10-10T03:52:00.502Z,101782.16
2022-10-10T03:57:06.244Z,101782.19
2022-10-10T04:02:11.933Z,101782.52
2022-10-10T04:07:17.856Z,101785.20
2022-10-10T04:12:24.294Z,101780.92
2022-10-10T04:17:30.009Z,101776.47
2022-10-10T04:22:35.828Z,101771.96
2022-10-10T04:27:43.660Z,101773.73
2022-10-10T04:32:49.623Z,101775.30
2022-10-10T04:37:55.703Z,101773.29
2022-10-10T04:43:01.479Z,101774.42
2022-10-10T04:48:07.217Z,101772.30
2022-10-10T04:53:12.950Z,101784.11
2022-10-10T04:58:19.504Z,101778.66
2022-10-10T05:03:26.260Z,101773.41
2022-10-10T05:08:31.996Z,101768.52
2022-10-10T05:13:37.987Z,101765.27
2022-10-10T05:18:43.893Z,101769.40
2022-10-10T05:23:49.581Z,101768.84
2022-10-10T05:28:55.876Z,101764.40
2022-10-10T05:34:01.702Z,101771.30
2022-10-10T05:39:07.823Z,101770.78
2022-10-10T05:44:13.541Z,101776.58
2022-10-10T05:49:19.785Z,101765.64
2022-10-10T05:54:25.698Z,101757.13
2022-10-10T05:59:31.530Z,101753.89
2022-10-10T06:04:37.436Z,101754.43
2022-10-10T06:09:43.118Z,101755.59
2022-10-10T06:14:48.992Z,101751.55
2022-10-10T06:19:55.068Z,101753.54
2022-10-10T06:25:01.154Z,101747.53
2022-10-10T06:30:10.581Z,101748.16
2022-10-10T06:35:16.452Z,101746.86
2022-10-10T06:40:22.359Z,101749.83
2022-10-10T06:45:28.191Z,101754.59
2022-10-10T06:50:34.068Z,101752.03
2022-10-10T06:55:47.561Z,101744.71
2022-10-10T07:00:57.150Z,101741.65
2022-10-10T07:06:04.279Z,101736.73
2022-10-10T07:11:10.285Z,101740.11
2022-10-10T07:16:16.105Z,101739.70
2022-10-10T07:21:22.730Z,101736.77
2022-10-10T07:26:31.098Z,101733.84
2022-10-10T07:31:36.901Z,101730.48
2022-10-10T07:36:43.412Z,101722.74
2022-10-10T07:41:49.540Z,101729.05
2022-10-10T07:46:55.762Z,101732.67
2022-10-10T07:52:01.941Z,101731.92
2022-10-10T07:57:07.867Z,101724.54
2022-10-10T08:02:13.823Z,101723.85
2022-10-10T08:07:19.723Z,101721.54
2022-10-10T08:12:25.978Z,101712.92
2022-10-10T08:17:32.244Z,101708.64
2022-10-10T08:22:37.975Z,101705.13
2022-10-10T08:27:43.786Z,101696.44
2022-10-10T08:32:49.771Z,101700.05
2022-10-10T08:37:56.178Z,101701.45
2022-10-10T08:43:07.511Z,101698.70
2022-10-10T08:48:17.143Z,101690.90
2022-10-10T08:53:29.232Z,101683.00
2022-10-10T08:58:38.501Z,101678.19
2022-10-10T09:03:48.137Z,101678.22
2022-10-10T09:09:01.271Z,101666.35
2022-10-10T09:14:17.481Z,101661.59
2022-10-10T09:19:37.775Z,101661.27
2022-10-10T09:24:49.259Z,101654.27
2022-10-10T09:30:03.027Z,101651.95
2022-10-10T09:35:19.155Z,101647.11
2022-10-10T09:40:30.133Z,101647.88
2022-10-10T09:45:41.839Z,101635.56
2022-10-10T09:50:48.076Z,101637.23
2022-10-10T09:55:55.064Z,101627.94
2022-10-10T10:01:15.333Z,101626.89
2022-10-10T10:06:21.543Z,101629.27
2022-10-10T10:11:32.121Z,101623.71
2022-10-10T10:16:39.985Z,101620.32
2022-10-10T10:21:51.972Z,101612.37
2022-10-10T10:27:08.094Z,101611.65
2022-10-10T10:32:26.487Z,101612.10
2022-10-10T10:37:47.122Z,101597.84
2022-10-10T10:43:15.484Z,101587.11
2022-10-10T10:48:33.107Z,101581.35
2022-10-10T10:53:46.636Z,101570.73
2022-10-10T10:59:30.420Z,101566.42
2022-10-10T11:05:18.389Z,101561.95
2022-10-10T11:10:24.389Z,101558.66
2022-10-10T11:16:04.778Z,101551.53
2022-10-10T11:21:08.268Z,101546.32
2022-10-10T11:26:22.263Z,101538.05
2022-10-10T11:31:31.907Z,101534.38
2022-10-10T11:36:43.201Z,101531.60
2022-10-10T11:41:55.591Z,101525.30
2022-10-10T11:47:10.857Z,101514.45
2022-10-10T11:52:38.680Z,101505.08
2022-10-10T11:57:50.171Z,101502.30
2022-10-10T12:02:56.977Z,101487.77
2022-10-10T12:08:17.817Z,101482.91
2022-10-10T12:13:31.800Z,101473.39
2022-10-10T12:18:44.494Z,101460.83
2022-10-10T12:24:00.390Z,101447.36
2022-10-10T12:29:10.277Z,101442.49
2022-10-10T12:34:43.811Z,101429.29
2022-10-10T12:40:21.434Z,101422.40
2022-10-10T12:46:01.415Z,101408.75
2022-10-10T12:51:17.289Z,101396.48
2022-10-10T12:56:37.654Z,101389.13
2022-10-10T13:01:47.847Z,101384.03
2022-10-10T13:06:56.654Z,101381.84
2022-10-10T13:12:04.422Z,101366.87
2022-10-10T13:17:27.108Z,101355.80
2022-10-10T13:22:36.372Z,101352.27
2022-10-10T13:27:42.672Z,101337.82
2022-10-10T13:32:49.283Z,101324.74
2022-10-10T13:37:57.597Z,101328.70
2022-10-10T13:43:03.745Z,101321.27
2022-10-10T13:48:25.436Z,101313.66
2022-10-10T13:53:45.839Z,101306.78
2022-10-10T13:58:56.021Z,101297.18
2022-10-10T14:04:07.974Z,101291.09
2022-10-10T14:09:19.829Z,101282.42
2022-10-10T14:14:32.429Z,101276.98
2022-10-10T14:19:38.843Z,101270.36
2022-10-10T14:24:44.611Z,101263.00
2022-10-10T14:29:50.894Z,101253.81
2022-10-10T14:34:56.753Z,101247.20
2022-10-10T14:40:03.570Z,101247.33
2022-10-10T14:45:15.109Z,101246.09
2022-10-10T14:50:24.450Z,101240.50
2022-10-10T14:55:30.158Z,101239.27
2022-10-10T15:00:36.202Z,101228.60
2022-10-10T15:05:42.205Z,101229.08
2022-10-10T15:10:48.261Z,101226.90
2022-10-10T15:15:54.504Z,101224.39
2022-10-10T15:21:00.808Z,101221.98
2022-10-10T15:26:07.729Z,101218.58
2022-10-10T15:31:13.528Z,101221.17
2022-10-10T15:36:19.479Z,101216.52
2022-10-10T15:41:26.180Z,101212.53
2022-10-10T15:46:32.077Z,101218.09
2022-10-10T15:51:37.969Z,101217.50
2022-10-10T15:56:43.959Z,101221.50
2022-10-10T16:01:49.880Z,101219.17
2022-10-10T16:12:22.481Z,101209.29
2022-10-10T16:17:28.308Z,101208.98
2022-10-10T16:22:34.327Z,101212.63
2022-10-10T16:27:40.245Z,101219.89
2022-10-10T16:32:46.104Z,101218.06
2022-10-10T16:37:52.093Z,101219.03
2022-10-10T16:42:57.890Z,101219.60
2022-10-10T16:48:03.563Z,101217.38
2022-10-10T16:53:11.212Z,101210.80
2022-10-10T16:58:17.027Z,101206.66
2022-10-10T17:03:25.043Z,101209.20
2022-10-10T17:08:32.335Z,101206.55
2022-10-10T17:13:39.830Z,101198.13
2022-10-10T17:18:47.496Z,101194.42
2022-10-10T17:23:54.132Z,101185.29
2022-10-10T17:29:00.449Z,101177.02
2022-10-10T17:34:07.373Z,101167.30
2022-10-10T17:39:14.243Z,101156.49
2022-10-10T17:45:40.273Z,101146.02
2022-10-10T17:50:47.913Z,101145.52
2022-10-10T17:55:53.924Z,101142.41
2022-10-10T18:01:03.873Z,101140.89
2022-10-10T18:06:12.154Z,101139.23
2022-10-10T18:11:20.770Z,101137.74
2022-10-10T18:16:27.279Z,101142.83
2022-10-10T18:21:33.398Z,101148.27
2022-10-10T18:26:39.350Z,101146.77
2022-10-10T18:31:45.322Z,101149.11
2022-10-10T18:36:51.737Z,101145.98
2022-10-10T18:41:57.575Z,101135.72
2022-10-10T18:47:03.351Z,101125.80
2022-10-10T18:52:10.350Z,101119.61
2022-10-10T18:57:16.204Z,101115.29
2022-10-10T19:02:21.933Z,101110.27
2022-10-10T19:07:27.899Z,101106.67
2022-10-10T19:12:33.819Z,101104.86
2022-10-10T19:17:39.561Z,101104.80
2022-10-10T19:22:45.279Z,101106.45
2022-10-10T19:27:51.074Z,101099.57
2022-10-10T19:32:57.907Z,101095.77
2022-10-10T19:38:03.658Z,101093.35
2022-10-10T19:43:09.814Z,101086.10
2022-10-10T19:48:16.145Z,101078.54
2022-10-10T19:53:21.912Z,101077.08
2022-10-10T19:58:28.541Z,101073.68
2022-10-10T20:03:34.672Z,101076.30
2022-10-10T20:08:40.490Z,101069.90
2022-10-10T20:13:46.491Z,101066.30
2022-10-10T20:18:52.627Z,101061.02
2022-10-10T20:23:59.135Z,101057.65
2022-10-10T20:29:05.775Z,101053.06
2022-10-10T20:34:12.318Z,101047.92
2022-10-10T20:39:19.794Z,101042.04
2022-10-10T20:44:25.802Z,101040.65
2022-10-10T20:49:31.640Z,101038.42
2022-10-10T20:54:37.637Z,101038.65
2022-10-10T20:59:43.700Z,101028.45
2022-10-10T21:04:49.605Z,101025.02
2022-10-10T21:09:55.490Z,101022.41
2022-10-10T21:15:03.029Z,101018.93
2022-10-10T21:20:10.184Z,101017.39
2022-10-10T21:25:16.238Z,101013.74
2022-10-10T21:30:22.206Z,101010.09
2022-10-10T21:35:28.169Z,101006.43
2022-10-10T21:40:36.381Z,100997.25
2022-10-10T21:45:42.433Z,100990.50
2022-10-10T21:50:48.263Z,100990.98
2022-10-10T21:55:54.442Z,100995.65
2022-10-10T22:01:00.296Z,100991.11
2022-10-10T22:06:08.311Z,100991.79
2022-10-10T22:11:16.355Z,100984.65
2022-10-10T22:16:22.630Z,100978.55
2022-10-10T22:21:31.970Z,100975.55
2022-10-10T22:26:38.496Z,100967.34
2022-10-10T22:31:44.232Z,100958.58
2022-10-10T22:36:50.053Z,100956.55
2022-10-10T22:41:55.888Z,100955.41
2022-10-10T22:47:01.642Z,100946.17
2022-10-10T22:52:09.306Z,100943.91
2022-10-10T22:57:15.286Z,100939.95
2022-10-10T23:02:21.076Z,100933.56
2022-10-10T23:07:27.087Z,100931.01
2022-10-10T23:12:32.789Z,100924.98
2022-10-10T23:17:38.518Z,100924.83
2022-10-10T23:22:44.325Z,100926.38
2022-10-10T23:27:50.044Z,100923.08
2022-10-10T23:32:55.810Z,100920.00
2022-10-10T23:38:01.654Z,100911.02
2022-10-10T23:43:07.710Z,100903.02
2022-10-10T23:48:13.419Z,100898.84
2022-10-10T23:53:19.583Z,100901.15
2022-10-10T23:58:25.439Z,100905.39
